createdAt,value
2022-09-23T03:23:53.481Z,0.00
2022-09-23T03:24:54.383Z,0.00
2022-09-23T03:25:54.344Z,0.00
2022-09-23T03:26:54.347Z,0.00
2022-09-23T03:27:54.324Z,0.00
2022-09-23T03:28:54.301Z,0.00
2022-09-23T03:29:54.330Z,0.00
2022-09-23T03:30:54.285Z,0.00
2022-09-23T03:31:54.321Z,0.00
2022-09-23T03:32:54.307Z,0.00
2022-09-23T03:33:54.246Z,0.00
2022-09-23T03:34:54.231Z,0.00
2022-09-23T03:35:54.222Z,0.00
2022-09-23T03:36:54.208Z,0.00
2022-09-23T03:37:54.243Z,0.00
2022-09-23T03:38:54.189Z,0.00
2022-09-23T03:39:54.217Z,0.00
2022-09-23T03:40:54.214Z,0.00
2022-09-23T03:41:54.164Z,0.00
2022-09-23T03:42:54.162Z,0.00
2022-09-23T03:43:54.141Z,0.00
2022-09-23T03:44:54.147Z,0.00
2022-09-23T03:45:54.192Z,0.00
2022-09-23T03:46:54.107Z,0.00
2022-09-23T03:47:54.113Z,0.00
2022-09-23T03:48:54.073Z,0.00
2022-09-23T03:49:54.311Z,0.00
2022-09-23T03:50:54.562Z,0.00
2022-09-23T03:51:54.052Z,0.00
2022-09-23T03:52:54.064Z,0.00
2022-09-23T03:53:54.031Z,0.00
2022-09-23T03:54:54.094Z,0.00
2022-09-23T03:55:54.020Z,0.00
2022-09-23T03:56:53.996Z,0.00
2022-09-23T03:57:54.004Z,0.00
2022-09-23T03:58:53.992Z,0.00
2022-09-23T03:59:53.976Z,0.00
2022-09-23T04:00:54.014Z,0.00
2022-09-23T04:01:53.991Z,0.00
2022-09-23T04:02:53.938Z,0.00
2022-09-23T04:03:53.930Z,0.00
2022-09-23T04:04:53.925Z,0.00
2022-09-23T04:05:53.914Z,0.00
2022-09-23T04:06:53.906Z,0.00
2022-09-23T04:07:53.904Z,0.00
2022-09-23T04:08:53.864Z,0.00
2022-09-23T04:09:53.844Z,0.00
2022-09-23T04:10:54.991Z,0.00
2022-09-23T04:11:53.840Z,0.00
2022-09-23T04:12:53.832Z,0.00
2022-09-23T04:13:53.807Z,0.00
2022-09-23T04:14:53.793Z,0.00
2022-09-23T04:15:53.798Z,0.00
2022-09-23T04:16:53.779Z,0.00
2022-09-23T04:17:53.808Z,0.00
2022-09-23T04:18:53.773Z,0.00
2022-09-23T04:19:53.752Z,0.00
2022-09-23T04:20:53.743Z,0.00
2022-09-23T04:21:53.726Z,0.00
2022-09-23T04:22:53.738Z,0.00
2022-09-23T04:23:53.737Z,0.00
2022-09-23T04:24:53.706Z,0.00
2022-09-23T04:25:53.747Z,0.00
2022-09-23T04:26:53.721Z,0.00
2022-09-23T04:27:53.648Z,0.00
2022-09-23T04:28:53.669Z,0.00
2022-09-23T04:29:53.640Z,0.00
2022-09-23T04:30:53.660Z,0.00
2022-09-23T04:31:53.681Z,0.00
2022-09-23T04:32:53.657Z,0.00
2022-09-23T04:33:53.598Z,0.00
2022-09-23T04:34:53.608Z,0.00
2022-09-23T04:35:53.579Z,0.00
2022-09-23T04:36:53.555Z,0.00
2022-09-23T04:37:53.567Z,0.00
2022-09-23T04:38:53.533Z,0.00
2022-09-23T04:39:53.534Z,0.00
2022-09-23T04:40:53.581Z,0.00
2022-09-23T04:41:53.501Z,0.00
2022-09-23T04:42:53.515Z,0.00
2022-09-23T04:43:53.512Z,0.00
2022-09-23T04:44:53.489Z,0.00
2022-09-23T04:45:53.458Z,0.00
2022-09-23T04:46:53.533Z,0.00
2022-09-23T04:47:53.433Z,0.00
2022-09-23T04:48:53.432Z,0.00
2022-09-23T04:49:57.772Z,4.00
2022-09-23T04:50:53.418Z,4.00
2022-09-23T04:51:53.475Z,0.00
2022-09-23T04:52:53.891Z,4.00
2022-09-23T04:53:53.384Z,4.00
2022-09-23T04:54:53.360Z,8.00
2022-09-23T04:55:53.414Z,4.00
2022-09-23T04:56:53.398Z,8.00
2022-09-23T04:57:53.359Z,8.00
2022-09-23T04:58:53.332Z,12.00
2022-09-23T04:59:53.344Z,12.00
2022-09-23T05:00:53.357Z,16.00
2022-09-23T05:01:53.338Z,12.00
2022-09-23T05:02:53.296Z,20.00
2022-09-23T05:03:53.261Z,24.00
2022-09-23T05:04:53.248Z,28.00
2022-09-23T05:05:53.246Z,28.00
2022-09-23T05:06:53.234Z,36.00
2022-09-23T05:07:53.270Z,44.00
2022-09-23T05:08:53.213Z,48.00
2022-09-23T05:09:53.233Z,56.00
2022-09-23T05:10:53.218Z,68.00
2022-09-23T05:11:53.194Z,76.00
2022-09-23T05:13:00.886Z,88.00
2022-09-23T05:13:53.165Z,96.00
2022-09-23T05:14:53.150Z,108.00
2022-09-23T05:15:53.170Z,120.00
2022-09-23T05:16:53.133Z,136.00
2022-09-23T05:17:53.279Z,148.00
2022-09-23T05:18:53.097Z,160.00
2022-09-23T05:19:53.099Z,176.00
2022-09-23T05:20:53.117Z,188.00
2022-09-23T05:21:53.078Z,200.00
2022-09-23T05:22:53.047Z,212.00
2022-09-23T05:23:53.053Z,228.00
2022-09-23T05:24:53.038Z,248.00
2022-09-23T05:25:53.043Z,268.00
2022-09-23T05:26:53.008Z,288.00
2022-09-23T05:27:53.036Z,312.00
2022-09-23T05:28:52.991Z,336.00
2022-09-23T05:29:52.970Z,360.00
2022-09-23T05:30:52.977Z,384.00
2022-09-23T05:31:53.275Z,412.00
2022-09-23T05:32:52.987Z,436.00
2022-09-23T05:33:52.940Z,464.00
2022-09-23T05:34:52.937Z,488.00
2022-09-23T05:35:52.912Z,516.00
2022-09-23T05:36:52.906Z,540.00
2022-09-23T05:37:52.941Z,572.00
2022-09-23T05:38:52.881Z,600.00
2022-09-23T05:39:53.433Z,628.00
2022-09-23T05:40:52.921Z,656.00
2022-09-23T05:41:52.847Z,688.00
2022-09-23T05:42:52.839Z,720.00
2022-09-23T05:43:52.831Z,752.00
2022-09-23T05:44:52.804Z,792.00
2022-09-23T05:45:52.826Z,828.00
2022-09-23T05:46:52.897Z,872.00
2022-09-23T05:47:52.772Z,916.00
2022-09-23T05:48:52.812Z,968.00
2022-09-23T05:50:00.193Z,1016.00
2022-09-23T05:50:52.747Z,1068.00
2022-09-23T05:51:52.729Z,1124.00
2022-09-23T05:52:52.730Z,1168.00
2022-09-23T05:53:52.700Z,1224.00
2022-09-23T05:54:52.706Z,1276.00
2022-09-23T05:55:52.742Z,1328.00
2022-09-23T05:56:52.701Z,1376.00
2022-09-23T05:57:52.677Z,1428.00
2022-09-23T05:58:53.496Z,1476.00
2022-09-23T05:59:52.641Z,1528.00
2022-09-23T06:00:52.643Z,1568.00
2022-09-23T06:01:56.283Z,1612.00
2022-09-23T06:02:52.667Z,1648.00
2022-09-23T06:03:52.609Z,1684.00
2022-09-23T06:04:52.641Z,1716.00
2022-09-23T06:05:52.617Z,1752.00
2022-09-23T06:06:52.596Z,1784.00
2022-09-23T06:07:52.563Z,1820.00
2022-09-23T06:08:52.599Z,1852.00
2022-09-23T06:09:52.542Z,1880.00
2022-09-23T06:10:54.558Z,1912.00
2022-09-23T06:11:52.520Z,1948.00
2022-09-23T06:12:52.511Z,1984.00
2022-09-23T06:13:52.548Z,2024.00
2022-09-23T06:14:52.692Z,2072.00
2022-09-23T06:15:52.511Z,2116.00
2022-09-23T06:16:52.589Z,2148.00
2022-09-23T06:17:52.518Z,2184.00
2022-09-23T06:18:52.443Z,2220.00
2022-09-23T06:19:52.441Z,2252.00
2022-09-23T06:20:52.410Z,2284.00
2022-09-23T06:21:52.402Z,2300.00
2022-09-23T06:22:55.219Z,2312.00
2022-09-23T06:23:55.629Z,2324.00
2022-09-23T06:24:52.382Z,2336.00
2022-09-23T06:25:52.392Z,2356.00
2022-09-23T06:26:52.335Z,2392.00
2022-09-23T06:27:52.329Z,2400.00
2022-09-23T06:28:52.343Z,2412.00
2022-09-23T06:29:53.004Z,2424.00
2022-09-23T06:30:52.297Z,2436.00
2022-09-23T06:31:52.357Z,2460.00
2022-09-23T06:32:52.274Z,2472.00
2022-09-23T06:34:00.116Z,2480.00
2022-09-23T06:34:52.478Z,2508.00
2022-09-23T06:35:58.826Z,2524.00
2022-09-23T06:36:52.244Z,2516.00
2022-09-23T06:37:52.229Z,2532.00
2022-09-23T06:38:52.221Z,2536.00
2022-09-23T06:39:52.214Z,2544.00
2022-09-23T06:40:52.236Z,2540.00
2022-09-23T06:41:52.216Z,2532.00
2022-09-23T06:42:52.510Z,2548.00
2022-09-23T06:43:52.155Z,2568.00
2022-09-23T06:44:52.140Z,2576.00
2022-09-23T06:45:52.137Z,2572.00
2022-09-23T06:46:52.194Z,2572.00
2022-09-23T06:47:52.172Z,2568.00
2022-09-23T06:48:52.105Z,2564.00
2022-09-23T06:49:52.078Z,2552.00
2022-09-23T06:50:52.081Z,2572.00
2022-09-23T06:51:52.057Z,2588.00
2022-09-23T06:52:52.048Z,2652.00
2022-09-23T06:53:52.079Z,2676.00
2022-09-23T06:54:52.048Z,2792.00
2022-09-23T06:55:52.033Z,2844.00
2022-09-23T06:56:52.969Z,2872.00
2022-09-23T06:57:52.011Z,2872.00
2022-09-23T06:58:51.994Z,2868.00
2022-09-23T06:59:52.029Z,2880.00
2022-09-23T07:00:53.018Z,2868.00
2022-09-23T07:01:52.040Z,2800.00
2022-09-23T07:02:52.014Z,2764.00
2022-09-23T07:03:51.945Z,2744.00
2022-09-23T07:04:51.934Z,2752.00
2022-09-23T07:05:52.140Z,2764.00
2022-09-23T07:06:51.908Z,2820.00
2022-09-23T07:07:51.913Z,2876.00
2022-09-23T07:08:51.875Z,2920.00
2022-09-23T07:09:52.453Z,2940.00
2022-09-23T07:10:51.902Z,3004.00
2022-09-23T07:11:51.865Z,3052.00
2022-09-23T07:12:51.835Z,3100.00
2022-09-23T07:13:55.441Z,3144.00
2022-09-23T07:14:51.808Z,3212.00
2022-09-23T07:15:51.878Z,3292.00
2022-09-23T07:16:51.858Z,3372.00
2022-09-23T07:17:51.775Z,3428.00
2022-09-23T07:18:52.451Z,3504.00
2022-09-23T07:19:51.798Z,3560.00
2022-09-23T07:20:51.741Z,3612.00
2022-09-23T07:21:51.746Z,3672.00
2022-09-23T07:22:51.722Z,3728.00
2022-09-23T07:23:51.721Z,3780.00
2022-09-23T07:24:51.729Z,3880.00
2022-09-23T07:25:51.711Z,3976.00
2022-09-23T07:26:51.707Z,4048.00
2022-09-23T07:27:51.679Z,4100.00
2022-09-23T07:28:51.661Z,4216.00
2022-09-23T07:29:51.659Z,4276.00
2022-09-23T07:30:59.092Z,4352.00
2022-09-23T07:31:52.204Z,4452.00
2022-09-23T07:32:51.638Z,4588.00
2022-09-23T07:33:51.604Z,4684.00
2022-09-23T07:34:51.597Z,4752.00
2022-09-23T07:35:51.603Z,4884.00
2022-09-23T07:36:51.587Z,5004.00
2022-09-23T07:37:51.566Z,5160.00
2022-09-23T07:38:51.561Z,5356.00
2022-09-23T07:39:51.557Z,5592.00
2022-09-23T07:40:51.574Z,5816.00
2022-09-23T07:41:52.477Z,5968.00
2022-09-23T07:42:52.456Z,6108.00
2022-09-23T07:43:51.502Z,6248.00
2022-09-23T07:44:51.486Z,6404.00
2022-09-23T07:45:51.463Z,6576.00
2022-09-23T07:46:51.530Z,6780.00
2022-09-23T07:47:51.441Z,6940.00
2022-09-23T07:48:51.433Z,7116.00
2022-09-23T07:49:51.428Z,7280.00
2022-09-23T07:50:51.428Z,7408.00
2022-09-23T07:51:51.415Z,7500.00
2022-09-23T07:52:51.419Z,7592.00
2022-09-23T07:53:51.375Z,7684.00
2022-09-23T07:54:51.866Z,7748.00
2022-09-23T07:55:51.382Z,7848.00
2022-09-23T07:56:51.344Z,7944.00
2022-09-23T07:57:51.613Z,8084.00
2022-09-23T07:58:51.334Z,8208.00
2022-09-23T07:59:51.323Z,8352.00
2022-09-23T08:00:51.301Z,8448.00
2022-09-23T08:01:51.422Z,8588.00
2022-09-23T08:02:53.156Z,8740.00
2022-09-23T08:03:51.269Z,8980.00
2022-09-23T08:04:51.997Z,9216.00
2022-09-23T08:05:51.259Z,9392.00
2022-09-23T08:06:51.976Z,9604.00
2022-09-23T08:07:51.228Z,9756.00
2022-09-23T08:08:53.342Z,9892.00
2022-09-23T08:09:51.207Z,10008.00
2022-09-23T08:10:51.197Z,10080.00
2022-09-23T08:11:51.382Z,10056.00
2022-09-23T08:12:51.176Z,9996.00
2022-09-23T08:13:59.268Z,9940.00
2022-09-23T08:14:51.142Z,9868.00
2022-09-23T08:15:55.309Z,9832.00
2022-09-23T08:16:51.138Z,9800.00
2022-09-23T08:17:51.118Z,9980.00
2022-09-23T08:18:51.196Z,10104.00
2022-09-23T08:19:51.967Z,10244.00
2022-09-23T08:20:51.089Z,10352.00
2022-09-23T08:21:51.065Z,10508.00
2022-09-23T08:22:51.085Z,10680.00
2022-09-23T08:23:51.048Z,10776.00
2022-09-23T08:24:52.709Z,10896.00
2022-09-23T08:25:51.029Z,11036.00
2022-09-23T08:26:51.986Z,11240.00
2022-09-23T08:27:51.004Z,11540.00
2022-09-23T08:28:50.994Z,11872.00
2022-09-23T08:29:50.993Z,12228.00
2022-09-23T08:30:51.019Z,12456.00
2022-09-23T08:31:50.964Z,12596.00
2022-09-23T08:32:50.948Z,12800.00
2022-09-23T08:33:51.536Z,13044.00
2022-09-23T08:34:52.239Z,13272.00
2022-09-23T08:35:50.919Z,13532.00
2022-09-23T08:36:50.926Z,13704.00
2022-09-23T08:37:51.756Z,13704.00
2022-09-23T08:38:50.889Z,14352.00
2022-09-23T08:39:50.900Z,14804.00
2022-09-23T08:40:50.850Z,15204.00
2022-09-23T08:41:53.821Z,16088.00
2022-09-23T08:42:50.857Z,16200.00
2022-09-23T08:43:51.099Z,16480.00
2022-09-23T08:44:50.828Z,16896.00
2022-09-23T08:45:50.885Z,17312.00
2022-09-23T08:46:53.345Z,17472.00
2022-09-23T08:47:50.778Z,17216.00
2022-09-23T08:48:50.766Z,18176.00
2022-09-23T08:49:50.777Z,19328.00
2022-09-23T08:50:51.950Z,19200.00
2022-09-23T08:51:50.739Z,19392.00
2022-09-23T08:52:50.781Z,19552.00
2022-09-23T08:53:50.707Z,19648.00
2022-09-23T08:54:55.169Z,18304.00
2022-09-23T08:55:50.688Z,16736.00
2022-09-23T08:56:50.675Z,15980.00
2022-09-23T08:58:14.094Z,14676.00
2022-09-23T08:58:50.657Z,14520.00
2022-09-23T08:59:51.150Z,14376.00
2022-09-23T09:00:50.631Z,14328.00
2022-09-23T09:01:50.723Z,14468.00
2022-09-23T09:02:50.687Z,14540.00
2022-09-23T09:03:50.961Z,14484.00
2022-09-23T09:04:50.647Z,14524.00
2022-09-23T09:05:54.244Z,14424.00
2022-09-23T09:06:54.108Z,14308.00
2022-09-23T09:07:50.562Z,14404.00
2022-09-23T09:08:50.570Z,14196.00
2022-09-23T09:09:50.527Z,14092.00
2022-09-23T09:10:50.565Z,14084.00
2022-09-23T09:11:50.519Z,14072.00
2022-09-23T09:12:50.589Z,14136.00
2022-09-23T09:13:50.483Z,14160.00
2022-09-23T09:14:50.693Z,14252.00
2022-09-23T09:15:51.452Z,14560.00
2022-09-23T09:17:00.426Z,14912.00
2022-09-23T09:17:50.477Z,15072.00
2022-09-23T09:18:50.431Z,15104.00
2022-09-23T09:19:50.435Z,15252.00
2022-09-23T09:20:50.430Z,15268.00
2022-09-23T09:21:50.416Z,15276.00
2022-09-23T09:22:50.394Z,15040.00
2022-09-23T09:23:51.311Z,15240.00
2022-09-23T09:24:50.402Z,15192.00
2022-09-23T09:25:50.495Z,14984.00
2022-09-23T09:26:50.354Z,15320.00
2022-09-23T09:27:50.346Z,15244.00
2022-09-23T09:28:50.331Z,15240.00
2022-09-23T09:29:50.357Z,15144.00
2022-09-23T09:30:50.345Z,15340.00
2022-09-23T09:31:50.292Z,15668.00
2022-09-23T09:32:50.270Z,15432.00
2022-09-23T09:33:50.280Z,14788.00
2022-09-23T09:34:50.278Z,14820.00
2022-09-23T09:35:50.300Z,15188.00
2022-09-23T09:36:50.247Z,15388.00
2022-09-23T09:37:50.210Z,15792.00
2022-09-23T09:38:50.243Z,16484.00
2022-09-23T09:39:50.187Z,18208.00
2022-09-23T09:40:51.019Z,19424.00
2022-09-23T09:41:50.176Z,20512.00
2022-09-23T09:42:50.180Z,21792.00
2022-09-23T09:43:50.156Z,26112.00
2022-09-23T09:44:50.143Z,25600.00
2022-09-23T09:45:56.647Z,25664.00
2022-09-23T09:46:50.173Z,24896.00
2022-09-23T09:47:50.123Z,22752.00
2022-09-23T09:48:50.294Z,22592.00
2022-09-23T09:49:50.084Z,21248.00
2022-09-23T09:50:50.094Z,21984.00
2022-09-23T09:51:51.022Z,22848.00
2022-09-23T09:52:50.003Z,24224.00
2022-09-23T09:53:49.983Z,25376.00
2022-09-23T09:54:49.988Z,24352.00
2022-09-23T09:55:50.198Z,29376.00
2022-09-23T09:56:50.175Z,29120.00
2022-09-23T09:57:49.937Z,30144.00
2022-09-23T09:58:49.952Z,36064.00
2022-09-23T09:59:50.471Z,42816.00
2022-09-23T10:00:50.689Z,46912.00
2022-09-23T10:01:50.188Z,47840.00
2022-09-23T10:02:51.051Z,46720.00
2022-09-23T10:03:49.900Z,46912.00
2022-09-23T10:04:49.962Z,40704.00
2022-09-23T10:05:49.900Z,32896.00
2022-09-23T10:06:50.137Z,31456.00
2022-09-23T10:07:50.073Z,25248.00
2022-09-23T10:08:50.456Z,20544.00
2022-09-23T10:09:49.847Z,19840.00
2022-09-23T10:10:49.788Z,19104.00
2022-09-23T10:11:50.013Z,20064.00
2022-09-23T10:12:49.784Z,21408.00
2022-09-23T10:13:49.777Z,22368.00
2022-09-23T10:14:49.967Z,22240.00
2022-09-23T10:15:49.776Z,23392.00
2022-09-23T10:16:50.327Z,26176.00
2022-09-23T10:17:49.731Z,29312.00
2022-09-23T10:18:49.739Z,31104.00
2022-09-23T10:19:49.713Z,34272.00
2022-09-23T10:20:49.684Z,36736.00
2022-09-23T10:21:49.695Z,41568.00
2022-09-23T10:22:49.693Z,46304.00
2022-09-23T10:23:50.448Z,49472.00
2022-09-23T10:24:49.641Z,50176.00
2022-09-23T10:25:49.631Z,50176.00
2022-09-23T10:26:49.642Z,48896.00
2022-09-23T10:27:49.631Z,46592.00
2022-09-23T10:28:50.474Z,37056.00
2022-09-23T10:29:49.602Z,30656.00
2022-09-23T10:30:49.637Z,25824.00
2022-09-23T10:31:49.588Z,24992.00
2022-09-23T10:32:49.561Z,24864.00
2022-09-23T10:33:49.563Z,25440.00
2022-09-23T10:34:49.554Z,27776.00
2022-09-23T10:35:49.536Z,27680.00
2022-09-23T10:36:49.542Z,28352.00
2022-09-23T10:37:49.637Z,29504.00
2022-09-23T10:38:49.529Z,27808.00
2022-09-23T10:39:49.515Z,28864.00
2022-09-23T10:40:49.799Z,29408.00
2022-09-23T10:41:49.473Z,28992.00
2022-09-23T10:42:49.451Z,29312.00
2022-09-23T10:43:49.500Z,28768.00
2022-09-23T10:44:49.429Z,28672.00
2022-09-23T10:45:49.448Z,29312.00
2022-09-23T10:46:50.765Z,24736.00
2022-09-23T10:47:49.406Z,27072.00
2022-09-23T10:48:49.406Z,29472.00
2022-09-23T10:49:49.588Z,30176.00
2022-09-23T10:50:49.368Z,28672.00
2022-09-23T10:51:49.371Z,29376.00
2022-09-23T10:52:49.375Z,29568.00
2022-09-23T10:53:49.360Z,31392.00
2022-09-23T10:54:49.329Z,32160.00
2022-09-23T10:55:49.314Z,32096.00
2022-09-23T10:56:49.346Z,32288.00
2022-09-23T10:57:49.344Z,33760.00
2022-09-23T10:58:49.295Z,33568.00
2022-09-23T10:59:49.303Z,36160.00
2022-09-23T11:00:49.266Z,37792.00
2022-09-23T11:01:49.314Z,38208.00
2022-09-23T11:02:49.252Z,37472.00
2022-09-23T11:03:49.263Z,36992.00
2022-09-23T11:04:49.291Z,38272.00
2022-09-23T11:05:50.002Z,37824.00
2022-09-23T11:06:49.212Z,36384.00
2022-09-23T11:07:49.230Z,34880.00
2022-09-23T11:08:49.298Z,35552.00
2022-09-23T11:09:49.195Z,35232.00
2022-09-23T11:10:49.191Z,35456.00
2022-09-23T11:11:49.208Z,35456.00
2022-09-23T11:12:49.142Z,33248.00
2022-09-23T11:13:54.052Z,33344.00
2022-09-23T11:14:49.187Z,31744.00
2022-09-23T11:15:49.173Z,31264.00
2022-09-23T11:16:49.116Z,32352.00
2022-09-23T11:17:49.125Z,29632.00
2022-09-23T11:18:49.103Z,27968.00
2022-09-23T11:19:49.093Z,25088.00
2022-09-23T11:20:49.082Z,27872.00
2022-09-23T11:21:49.064Z,27328.00
2022-09-23T11:22:49.058Z,36128.00
2022-09-23T11:23:49.044Z,41280.00
2022-09-23T11:24:49.037Z,43392.00
2022-09-23T11:25:49.051Z,42944.00
2022-09-23T11:26:49.007Z,45376.00
2022-09-23T11:27:49.031Z,45152.00
2022-09-23T11:28:48.999Z,46624.00
2022-09-23T11:29:55.539Z,46496.00
2022-09-23T11:30:48.999Z,44704.00
2022-09-23T11:31:49.213Z,43584.00
2022-09-23T11:32:49.555Z,43904.00
2022-09-23T11:33:48.954Z,38624.00
2022-09-23T11:35:02.035Z,36288.00
2022-09-23T11:35:49.151Z,39872.00
2022-09-23T11:36:49.548Z,44608.00
2022-09-23T11:37:58.910Z,47872.00
2022-09-23T11:38:49.108Z,47584.00
2022-09-23T11:39:49.997Z,46048.00
2022-09-23T11:40:48.916Z,44032.00
2022-09-23T11:41:51.906Z,42624.00
2022-09-23T11:42:48.858Z,43872.00
2022-09-23T11:43:49.542Z,43104.00
2022-09-23T11:44:50.094Z,40896.00
2022-09-23T11:45:49.619Z,41216.00
2022-09-23T11:46:49.584Z,40544.00
2022-09-23T11:47:48.816Z,37056.00
2022-09-23T11:48:49.002Z,39136.00
2022-09-23T11:49:48.802Z,42208.00
2022-09-23T11:50:48.787Z,47808.00
2022-09-23T11:51:51.982Z,48416.00
2022-09-23T11:52:48.772Z,50080.00
2022-09-23T11:53:48.750Z,44000.00
2022-09-23T11:54:48.750Z,42304.00
2022-09-23T11:55:57.550Z,36992.00
2022-09-23T11:56:49.295Z,34112.00
2022-09-23T11:57:49.595Z,29856.00
2022-09-23T11:58:52.827Z,31232.00
2022-09-23T12:00:52.360Z,30720.00
2022-09-23T12:01:48.670Z,29984.00
2022-09-23T12:02:59.684Z,25344.00
2022-09-23T12:03:48.783Z,23392.00
2022-09-23T12:04:57.235Z,23232.00
2022-09-23T12:05:48.996Z,20960.00
2022-09-23T12:06:48.641Z,20480.00
2022-09-23T12:07:48.638Z,20576.00
2022-09-23T12:08:48.652Z,21088.00
2022-09-23T12:09:58.157Z,24480.00
2022-09-23T12:10:48.662Z,25792.00
2022-09-23T12:11:48.601Z,24576.00
2022-09-23T12:12:48.565Z,28160.00
2022-09-23T12:13:48.550Z,36096.00
2022-09-23T12:14:48.567Z,32320.00
2022-09-23T12:15:48.549Z,33344.00
2022-09-23T12:16:48.667Z,36800.00
2022-09-23T12:17:48.511Z,39488.00
2022-09-23T12:18:48.511Z,32256.00
2022-09-23T12:19:48.508Z,29280.00
2022-09-23T12:20:48.469Z,30496.00
2022-09-23T12:21:51.166Z,34304.00
2022-09-23T12:22:48.467Z,30816.00
2022-09-23T12:23:48.449Z,26016.00
2022-09-23T12:24:48.490Z,31872.00
2022-09-23T12:25:48.446Z,32128.00
2022-09-23T12:26:48.444Z,31232.00
2022-09-23T12:27:48.421Z,36640.00
2022-09-23T12:28:48.426Z,31072.00
2022-09-23T12:29:48.380Z,27360.00
2022-09-23T12:30:48.467Z,45088.00
2022-09-23T12:31:48.389Z,34336.00
2022-09-23T12:32:48.362Z,30432.00
2022-09-23T12:33:48.355Z,23648.00
2022-09-23T12:34:48.327Z,19808.00
2022-09-23T12:35:48.325Z,19936.00
2022-09-23T12:36:48.332Z,19904.00
2022-09-23T12:37:48.420Z,19392.00
2022-09-23T12:38:48.292Z,20768.00
2022-09-23T12:40:58.536Z,26432.00
2022-09-23T12:41:59.479Z,27072.00
2022-09-23T12:42:59.483Z,25760.00
2022-09-23T12:43:59.443Z,23008.00
2022-09-23T12:44:59.453Z,22368.00
2022-09-23T12:45:59.435Z,21440.00
2022-09-23T12:46:59.447Z,22336.00
2022-09-23T12:47:59.418Z,22720.00
2022-09-23T12:48:59.385Z,21760.00
2022-09-23T12:49:59.391Z,21408.00
2022-09-23T12:50:59.375Z,20512.00
2022-09-23T12:51:59.368Z,20320.00
2022-09-23T12:52:59.355Z,20768.00
2022-09-23T15:38:51.029Z,5204.00
2022-09-23T15:39:51.967Z,5112.00
2022-09-23T15:40:52.029Z,5012.00
2022-09-23T15:41:51.922Z,4904.00
2022-09-23T15:42:51.936Z,4784.00
2022-09-23T15:43:51.914Z,4676.00
2022-09-23T15:44:51.889Z,4548.00
2022-09-23T15:45:51.948Z,4416.00
2022-09-23T15:46:52.164Z,4284.00
2022-09-23T15:47:51.867Z,4160.00
2022-09-23T15:48:56.388Z,4056.00
2022-09-23T15:49:51.853Z,3976.00
2022-09-23T15:50:51.822Z,3908.00
2022-09-23T15:51:51.825Z,3828.00
2022-09-23T15:52:51.798Z,3748.00
2022-09-23T15:53:51.805Z,3652.00
2022-09-23T15:54:51.789Z,3552.00
2022-09-23T15:55:51.784Z,3452.00
2022-09-23T15:56:51.762Z,3348.00
2022-09-23T15:57:51.740Z,3240.00
2022-09-23T15:58:51.752Z,3136.00
2022-09-23T15:59:58.296Z,3036.00
2022-09-23T16:00:55.999Z,2956.00
2022-09-23T16:01:51.762Z,2880.00
2022-09-23T16:02:51.709Z,2808.00
2022-09-23T16:03:51.692Z,2740.00
2022-09-23T16:04:51.676Z,2692.00
2022-09-23T16:05:51.656Z,2660.00
2022-09-23T16:06:51.644Z,2632.00
2022-09-23T16:07:51.665Z,2612.00
2022-09-23T16:08:51.690Z,2588.00
2022-09-23T16:09:51.617Z,2556.00
2022-09-23T16:10:51.719Z,2516.00
2022-09-23T16:11:51.603Z,2480.00
2022-09-23T16:12:51.702Z,2440.00
2022-09-23T16:13:51.724Z,2392.00
2022-09-23T16:14:51.556Z,2348.00
2022-09-23T16:15:51.563Z,2304.00
2022-09-23T16:16:51.608Z,2248.00
2022-09-23T16:17:51.531Z,2196.00
2022-09-23T16:18:51.561Z,2148.00
2022-09-23T16:19:51.497Z,2100.00
2022-09-23T16:20:51.508Z,2052.00
2022-09-23T16:21:51.506Z,2008.00
2022-09-23T16:22:51.486Z,1960.00
2022-09-23T16:23:51.468Z,1912.00
2022-09-23T16:24:51.474Z,1860.00
2022-09-23T16:25:51.446Z,1808.00
2022-09-23T16:26:51.458Z,1752.00
2022-09-23T16:27:51.417Z,1700.00
2022-09-23T16:28:51.425Z,1644.00
2022-09-23T16:29:51.404Z,1588.00
2022-09-23T16:30:51.385Z,1528.00
2022-09-23T16:31:51.452Z,1476.00
2022-09-23T16:32:51.360Z,1436.00
2022-09-23T16:33:51.386Z,1396.00
2022-09-23T16:34:51.364Z,1372.00
2022-09-23T16:35:51.335Z,1352.00
2022-09-23T16:36:51.327Z,1344.00
2022-09-23T16:37:51.312Z,1340.00
2022-09-23T16:38:51.321Z,1348.00
2022-09-23T16:39:51.353Z,1352.00
2022-09-23T16:40:51.340Z,1356.00
2022-09-23T16:41:51.273Z,1360.00
2022-09-23T16:42:51.246Z,1356.00
2022-09-23T16:43:51.249Z,1348.00
2022-09-23T16:44:51.245Z,1336.00
2022-09-23T16:45:51.270Z,1312.00
2022-09-23T16:46:51.216Z,1284.00
2022-09-23T16:47:51.197Z,1240.00
2022-09-23T16:48:52.804Z,1192.00
2022-09-23T16:49:51.185Z,1136.00
2022-09-23T16:50:51.166Z,1076.00
2022-09-23T16:51:51.163Z,1024.00
2022-09-23T16:52:51.147Z,964.00
2022-09-23T16:53:51.131Z,912.00
2022-09-23T16:54:51.129Z,864.00
2022-09-23T16:55:51.130Z,828.00
2022-09-23T16:56:51.098Z,792.00
2022-09-23T16:57:51.087Z,764.00
2022-09-23T16:58:51.089Z,736.00
2022-09-23T16:59:51.075Z,708.00
2022-09-23T17:00:51.120Z,680.00
2022-09-23T17:01:51.113Z,656.00
2022-09-23T17:02:51.049Z,624.00
2022-09-23T17:03:51.039Z,604.00
2022-09-23T17:04:51.006Z,576.00
2022-09-23T17:05:50.998Z,556.00
2022-09-23T17:06:50.996Z,532.00
2022-09-23T17:07:50.983Z,508.00
2022-09-23T17:08:50.976Z,480.00
2022-09-23T17:09:50.951Z,452.00
2022-09-23T17:10:50.987Z,424.00
2022-09-23T17:11:50.941Z,392.00
2022-09-23T17:12:50.926Z,356.00
2022-09-23T17:13:50.906Z,324.00
2022-09-23T17:14:50.922Z,300.00
2022-09-23T17:15:50.996Z,272.00
2022-09-23T17:16:50.948Z,252.00
2022-09-23T17:17:50.870Z,232.00
2022-09-23T17:18:50.865Z,212.00
2022-09-23T17:19:50.888Z,196.00
2022-09-23T17:20:50.847Z,180.00
2022-09-23T17:21:50.840Z,160.00
2022-09-23T17:22:50.823Z,140.00
2022-09-23T17:23:50.810Z,128.00
2022-09-23T17:24:50.800Z,112.00
2022-09-23T17:25:50.784Z,104.00
2022-09-23T17:26:53.238Z,88.00
2022-09-23T17:27:50.749Z,80.00
2022-09-23T17:28:50.743Z,76.00
2022-09-23T17:29:50.752Z,68.00
2022-09-23T17:30:50.727Z,64.00
2022-09-23T17:31:50.800Z,56.00
2022-09-23T17:32:50.700Z,52.00
2022-09-23T17:33:50.693Z,44.00
2022-09-23T17:34:50.690Z,44.00
2022-09-23T17:35:50.668Z,36.00
2022-09-23T17:36:50.664Z,32.00
2022-09-23T17:37:50.653Z,28.00
2022-09-23T17:38:50.632Z,24.00
2022-09-23T17:39:50.636Z,20.00
2022-09-23T17:40:50.699Z,20.00
2022-09-23T17:41:50.641Z,16.00
2022-09-23T17:42:50.587Z,12.00
2022-09-23T17:43:50.592Z,12.00
2022-09-23T17:44:50.583Z,12.00
2022-09-23T17:45:50.598Z,4.00
2022-09-23T17:46:50.568Z,8.00
2022-09-23T17:47:50.560Z,8.00
2022-09-23T17:48:50.519Z,4.00
2022-09-23T17:49:50.514Z,4.00
2022-09-23T17:50:50.531Z,4.00
2022-09-23T17:51:50.494Z,4.00
2022-09-23T17:52:50.484Z,4.00
2022-09-23T17:53:50.475Z,0.00
2022-09-23T17:54:50.470Z,0.00
2022-09-23T17:55:50.467Z,0.00
2022-09-23T17:56:50.441Z,0.00
2022-09-23T17:57:50.453Z,0.00
2022-09-23T17:58:50.410Z,0.00
2022-09-23T17:59:50.421Z,0.00
2022-09-23T18:00:50.596Z,0.00
2022-09-23T18:01:50.409Z,0.00
2022-09-23T18:02:50.396Z,0.00
2022-09-23T18:03:50.353Z,0.00
2022-09-23T18:04:50.358Z,0.00
2022-09-23T18:05:50.381Z,0.00
2022-09-23T18:06:50.332Z,0.00
2022-09-23T18:07:50.345Z,0.00
2022-09-23T18:08:50.330Z,0.00
2022-09-23T18:09:50.301Z,0.00
2022-09-23T18:10:50.296Z,0.00
2022-09-23T18:11:50.284Z,0.00
2022-09-23T18:12:50.330Z,0.00
2022-09-23T18:13:50.268Z,0.00
2022-09-23T18:14:50.245Z,0.00
2022-09-23T18:15:50.347Z,0.00
2022-09-23T18:16:50.229Z,0.00
2022-09-23T18:17:50.204Z,0.00
2022-09-23T18:18:50.205Z,0.00
2022-09-23T18:19:50.190Z,0.00
2022-09-23T18:20:50.178Z,0.00
2022-09-23T18:21:50.155Z,0.00
2022-09-23T18:22:50.158Z,0.00
2022-09-23T18:23:50.161Z,0.00